Amado, AZ

6:23 PM MST on April 25, 2015 (GMT -0700)
Elephant Head | | Change Station
CLOSE
Current Station
Personal Weather Station
Location: Amado, AZ
Elevation: 3155 ft
Nearby Weather Stations

Elev 3155 ft 31.74 °N, 111.01 °W | Updated 49 seconds ago

Clear
Clear
73.0 °F
Feels Like 75 °F
N
10.7
Wind Variable Wind from West
Gusts 12.8 mph

Today
High -- | Low -- °F
--% Chance of Precip.
Yesterday
High -- | Low -- °F
Precip. -- in
5:44 AM 7:00 PM
Waxing Crescent, 50% visible
Pressure 29.73 in
Visibility 10.0 miles
Clouds Clear
Heat Index 75 °F
Dew Point 28 °F
Humidity 19%
Rainfall 0.00 in
Snow Depth Not available.
UV 1 out of 12
Pollen 8.10 out of 12
Air Quality Not available.
Flu Activity Local Activity
METAR KOLS 260054Z AUTO 23019G24KT 10SM CLR 22/M01 A2985 RMK AO2 PK WND 22028/0034 SLP067 T02171006

More Conditions Fewer Conditions

Pressure 29.73 in
Visibility 10.0 miles
Clouds Clear
Heat Index 75 °F
Dew Point 28 °F
Humidity 19%
Rainfall 0.00 in
Snow Depth Not available.
UV 1 out of 12
Pollen 8.10 out of 12
Air Quality Not available.
Flu Activity Local Activity
METAR KOLS 260054Z AUTO 23019G24KT 10SM CLR 22/M01 A2985 RMK AO2 PK WND 22028/0034 SLP067 T02171006

More Conditions Fewer Conditions

10-Day Weather Forecast

Almanac

Astronomy

Apr. 25, 2015 Rise Set
Actual Time
Civil Twilight
Nautical Twilight
Astronomical Twilight
Moon
Length of Visible Light
Length of Day
Tomorrow will be .
, % of the Moon is Illuminated

Today's Extremes

State Highs State Lows

Community

WunderPhotos

Upload Photos

1,816,887 photos uploaded!

WunderBlogs® & News

Nearby

Air Quality

  Air Quality AQ Index Pollutant
Not available.

Snow Depth

Station Depth Elevation

Earthquake Activity

City Distance Mag. Time & Date
Minimum magnitude displayed is 2.5.

Coastal Water Temperatures

Place Temperature

Stations

Nearby Weather Stations

Station Location Temp. Windchill Dew Point Humidity Wind Precip. Elev Updated Type